sensor_id;sensor_type;location;lat;lon;timestamp;P1;durP1;ratioP1;P2;durP2;ratioP2
20314;SDS011;10315;50.958;13.080;2023-11-21T00:04:01;1.77;;;1.57;;
20314;SDS011;10315;50.958;13.080;2023-11-21T00:14:03;3.63;;;2.20;;
20314;SDS011;10315;50.958;13.080;2023-11-21T00:24:06;7.87;;;2.97;;
20314;SDS011;10315;50.958;13.080;2023-11-21T00:34:09;6.57;;;3.47;;
20314;SDS011;10315;50.958;13.080;2023-11-21T00:44:13;5.13;;;2.30;;
20314;SDS011;10315;50.958;13.080;2023-11-21T00:54:16;5.90;;;2.47;;
20314;SDS011;10315;50.958;13.080;2023-11-21T01:04:19;5.03;;;2.20;;
20314;SDS011;10315;50.958;13.080;2023-11-21T01:14:20;4.13;;;2.30;;
20314;SDS011;10315;50.958;13.080;2023-11-21T01:24:23;4.93;;;2.17;;
20314;SDS011;10315;50.958;13.080;2023-11-21T01:34:25;7.10;;;2.37;;
20314;SDS011;10315;50.958;13.080;2023-11-21T01:44:28;4.97;;;2.60;;
20314;SDS011;10315;50.958;13.080;2023-11-21T01:54:30;5.27;;;2.67;;
20314;SDS011;10315;50.958;13.080;2023-11-21T02:04:33;6.30;;;2.70;;
20314;SDS011;10315;50.958;13.080;2023-11-21T02:14:36;3.00;;;2.47;;
20314;SDS011;10315;50.958;13.080;2023-11-21T02:24:40;6.00;;;3.10;;
20314;SDS011;10315;50.958;13.080;2023-11-21T02:34:42;7.43;;;2.93;;
20314;SDS011;10315;50.958;13.080;2023-11-21T02:44:45;3.60;;;2.73;;
20314;SDS011;10315;50.958;13.080;2023-11-21T02:54:47;5.47;;;3.03;;
20314;SDS011;10315;50.958;13.080;2023-11-21T03:04:50;8.10;;;2.90;;
20314;SDS011;10315;50.958;13.080;2023-11-21T03:14:52;8.03;;;2.83;;
20314;SDS011;10315;50.958;13.080;2023-11-21T03:24:56;7.50;;;3.10;;
20314;SDS011;10315;50.958;13.080;2023-11-21T03:34:58;7.90;;;3.00;;
20314;SDS011;10315;50.958;13.080;2023-11-21T03:45:04;6.53;;;3.10;;
20314;SDS011;10315;50.958;13.080;2023-11-21T03:55:06;7.37;;;3.17;;
20314;SDS011;10315;50.958;13.080;2023-11-21T04:05:10;9.60;;;3.07;;
20314;SDS011;10315;50.958;13.080;2023-11-21T04:15:12;5.63;;;3.07;;
20314;SDS011;10315;50.958;13.080;2023-11-21T04:25:15;5.67;;;2.77;;
20314;SDS011;10315;50.958;13.080;2023-11-21T04:35:17;8.57;;;3.10;;
20314;SDS011;10315;50.958;13.080;2023-11-21T04:45:21;5.40;;;2.67;;
20314;SDS011;10315;50.958;13.080;2023-11-21T04:55:22;8.43;;;3.00;;
20314;SDS011;10315;50.958;13.080;2023-11-21T05:05:25;9.63;;;3.23;;
20314;SDS011;10315;50.958;13.080;2023-11-21T05:15:27;14.87;;;3.40;;
20314;SDS011;10315;50.958;13.080;2023-11-21T05:25:30;11.13;;;3.77;;
20314;SDS011;10315;50.958;13.080;2023-11-21T05:35:32;7.83;;;4.10;;
20314;SDS011;10315;50.958;13.080;2023-11-21T05:45:35;6.43;;;3.20;;
20314;SDS011;10315;50.958;13.080;2023-11-21T05:55:37;10.40;;;3.60;;
20314;SDS011;10315;50.958;13.080;2023-11-21T06:05:40;9.87;;;4.07;;
20314;SDS011;10315;50.958;13.080;2023-11-21T06:15:42;14.87;;;4.13;;
20314;SDS011;10315;50.958;13.080;2023-11-21T06:25:45;10.53;;;3.53;;
20314;SDS011;10315;50.958;13.080;2023-11-21T06:35:47;10.50;;;4.60;;
20314;SDS011;10315;50.958;13.080;2023-11-21T06:45:50;11.13;;;4.73;;
20314;SDS011;10315;50.958;13.080;2023-11-21T06:55:51;13.53;;;6.40;;
20314;SDS011;10315;50.958;13.080;2023-11-21T07:05:54;20.07;;;5.87;;
20314;SDS011;10315;50.958;13.080;2023-11-21T07:15:56;14.77;;;5.80;;
20314;SDS011;10315;50.958;13.080;2023-11-21T07:26:00;15.27;;;5.83;;
20314;SDS011;10315;50.958;13.080;2023-11-21T07:36:01;14.23;;;6.50;;
20314;SDS011;10315;50.958;13.080;2023-11-21T07:46:05;12.57;;;5.87;;
20314;SDS011;10315;50.958;13.080;2023-11-21T07:56:08;13.00;;;6.73;;
20314;SDS011;10315;50.958;13.080;2023-11-21T08:06:11;23.33;;;8.07;;
20314;SDS011;10315;50.958;13.080;2023-11-21T08:16:14;28.80;;;9.53;;
20314;SDS011;10315;50.958;13.080;2023-11-21T08:26:18;31.30;;;10.87;;
20314;SDS011;10315;50.958;13.080;2023-11-21T08:36:20;28.43;;;10.37;;
20314;SDS011;10315;50.958;13.080;2023-11-21T08:46:24;27.03;;;10.63;;
20314;SDS011;10315;50.958;13.080;2023-11-21T08:56:26;21.73;;;8.60;;
20314;SDS011;10315;50.958;13.080;2023-11-21T09:06:29;22.70;;;9.30;;
20314;SDS011;10315;50.958;13.080;2023-11-21T09:16:31;20.57;;;7.43;;
20314;SDS011;10315;50.958;13.080;2023-11-21T09:26:34;15.40;;;6.07;;
20314;SDS011;10315;50.958;13.080;2023-11-21T09:36:36;9.97;;;5.33;;
20314;SDS011;10315;50.958;13.080;2023-11-21T09:46:41;6.40;;;4.03;;
20314;SDS011;10315;50.958;13.080;2023-11-21T09:56:43;7.53;;;4.00;;
20314;SDS011;10315;50.958;13.080;2023-11-21T10:06:47;59.17;;;7.77;;
20314;SDS011;10315;50.958;13.080;2023-11-21T10:16:49;253.33;;;17.13;;
20314;SDS011;10315;50.958;13.080;2023-11-21T10:26:53;405.60;;;25.70;;
20314;SDS011;10315;50.958;13.080;2023-11-21T10:36:54;438.23;;;27.37;;
20314;SDS011;10315;50.958;13.080;2023-11-21T10:46:59;194.60;;;15.40;;
20314;SDS011;10315;50.958;13.080;2023-11-21T10:57:02;339.23;;;29.67;;
20314;SDS011;10315;50.958;13.080;2023-11-21T11:07:07;110.10;;;11.17;;
20314;SDS011;10315;50.958;13.080;2023-11-21T11:17:13;375.30;;;25.87;;
20314;SDS011;10315;50.958;13.080;2023-11-21T11:27:20;265.90;;;20.03;;
20314;SDS011;10315;50.958;13.080;2023-11-21T11:37:30;274.87;;;19.37;;
20314;SDS011;10315;50.958;13.080;2023-11-21T11:47:34;332.63;;;24.57;;
20314;SDS011;10315;50.958;13.080;2023-11-21T11:57:38;182.03;;;18.97;;
20314;SDS011;10315;50.958;13.080;2023-11-21T12:07:45;188.30;;;16.33;;
20314;SDS011;10315;50.958;13.080;2023-11-21T12:17:49;209.10;;;16.00;;
20314;SDS011;10315;50.958;13.080;2023-11-21T12:27:52;230.80;;;17.73;;
20314;SDS011;10315;50.958;13.080;2023-11-21T12:37:54;211.10;;;15.17;;
20314;SDS011;10315;50.958;13.080;2023-11-21T12:47:59;36.17;;;8.37;;
20314;SDS011;10315;50.958;13.080;2023-11-21T12:58:04;17.37;;;7.20;;
20314;SDS011;10315;50.958;13.080;2023-11-21T13:08:10;15.80;;;6.80;;
20314;SDS011;10315;50.958;13.080;2023-11-21T13:18:13;27.63;;;8.13;;
20314;SDS011;10315;50.958;13.080;2023-11-21T13:28:17;20.10;;;8.50;;
20314;SDS011;10315;50.958;13.080;2023-11-21T13:38:21;38.37;;;9.83;;
20314;SDS011;10315;50.958;13.080;2023-11-21T13:48:24;32.70;;;9.73;;
20314;SDS011;10315;50.958;13.080;2023-11-21T13:58:32;18.50;;;8.60;;
20314;SDS011;10315;50.958;13.080;2023-11-21T14:08:46;19.73;;;6.47;;
20314;SDS011;10315;50.958;13.080;2023-11-21T14:18:47;15.13;;;6.10;;
20314;SDS011;10315;50.958;13.080;2023-11-21T14:28:57;16.17;;;5.60;;
20314;SDS011;10315;50.958;13.080;2023-11-21T14:38:59;16.90;;;6.10;;
20314;SDS011;10315;50.958;13.080;2023-11-21T14:49:02;17.80;;;6.80;;
20314;SDS011;10315;50.958;13.080;2023-11-21T14:59:19;16.80;;;7.53;;
20314;SDS011;10315;50.958;13.080;2023-11-21T15:09:22;20.43;;;7.40;;
20314;SDS011;10315;50.958;13.080;2023-11-21T15:19:39;23.77;;;8.33;;
20314;SDS011;10315;50.958;13.080;2023-11-21T15:29:43;24.43;;;8.60;;
20314;SDS011;10315;50.958;13.080;2023-11-21T15:39:45;21.40;;;8.87;;
20314;SDS011;10315;50.958;13.080;2023-11-21T15:49:48;23.17;;;8.37;;
20314;SDS011;10315;50.958;13.080;2023-11-21T15:59:50;20.77;;;8.60;;
20314;SDS011;10315;50.958;13.080;2023-11-21T16:09:53;18.23;;;7.40;;
20314;SDS011;10315;50.958;13.080;2023-11-21T16:19:54;16.57;;;6.47;;
20314;SDS011;10315;50.958;13.080;2023-11-21T16:29:58;13.13;;;6.17;;
20314;SDS011;10315;50.958;13.080;2023-11-21T16:39:59;15.23;;;7.07;;
20314;SDS011;10315;50.958;13.080;2023-11-21T16:50:02;16.10;;;7.13;;
20314;SDS011;10315;50.958;13.080;2023-11-21T17:00:05;14.90;;;7.60;;
20314;SDS011;10315;50.958;13.080;2023-11-21T17:10:13;16.33;;;8.40;;
20314;SDS011;10315;50.958;13.080;2023-11-21T17:20:16;17.70;;;7.53;;
20314;SDS011;10315;50.958;13.080;2023-11-21T17:30:20;7.13;;;4.23;;
20314;SDS011;10315;50.958;13.080;2023-11-21T17:40:22;9.23;;;3.37;;
20314;SDS011;10315;50.958;13.080;2023-11-21T17:50:27;4.17;;;2.97;;
20314;SDS011;10315;50.958;13.080;2023-11-21T18:00:29;4.67;;;2.70;;
20314;SDS011;10315;50.958;13.080;2023-11-21T18:10:33;5.87;;;3.43;;
20314;SDS011;10315;50.958;13.080;2023-11-21T18:20:34;5.53;;;3.33;;
20314;SDS011;10315;50.958;13.080;2023-11-21T18:30:37;5.03;;;3.10;;
20314;SDS011;10315;50.958;13.080;2023-11-21T18:40:39;4.83;;;3.23;;
20314;SDS011;10315;50.958;13.080;2023-11-21T18:50:42;6.57;;;3.23;;
20314;SDS011;10315;50.958;13.080;2023-11-21T19:00:44;4.70;;;2.97;;
20314;SDS011;10315;50.958;13.080;2023-11-21T19:10:47;5.77;;;3.23;;
20314;SDS011;10315;50.958;13.080;2023-11-21T19:20:48;6.57;;;3.43;;
20314;SDS011;10315;50.958;13.080;2023-11-21T19:30:51;7.60;;;4.10;;
20314;SDS011;10315;50.958;13.080;2023-11-21T19:40:54;3.90;;;2.37;;
20314;SDS011;10315;50.958;13.080;2023-11-21T19:50:57;6.47;;;2.93;;
20314;SDS011;10315;50.958;13.080;2023-11-21T20:00:59;4.57;;;3.03;;
20314;SDS011;10315;50.958;13.080;2023-11-21T20:11:02;3.57;;;2.23;;
20314;SDS011;10315;50.958;13.080;2023-11-21T20:21:04;5.30;;;2.67;;
20314;SDS011;10315;50.958;13.080;2023-11-21T20:31:09;5.30;;;2.93;;
20314;SDS011;10315;50.958;13.080;2023-11-21T20:41:11;4.67;;;2.90;;
20314;SDS011;10315;50.958;13.080;2023-11-21T20:51:15;5.70;;;3.33;;
20314;SDS011;10315;50.958;13.080;2023-11-21T21:01:17;3.60;;;2.50;;
20314;SDS011;10315;50.958;13.080;2023-11-21T21:11:20;5.73;;;3.67;;
20314;SDS011;10315;50.958;13.080;2023-11-21T21:21:22;9.80;;;5.20;;
20314;SDS011;10315;50.958;13.080;2023-11-21T21:31:25;8.27;;;4.67;;
20314;SDS011;10315;50.958;13.080;2023-11-21T21:41:26;11.03;;;5.83;;
20314;SDS011;10315;50.958;13.080;2023-11-21T21:51:31;14.50;;;7.27;;
20314;SDS011;10315;50.958;13.080;2023-11-21T22:01:41;15.27;;;7.33;;
20314;SDS011;10315;50.958;13.080;2023-11-21T22:11:45;17.63;;;8.00;;
20314;SDS011;10315;50.958;13.080;2023-11-21T22:21:47;18.10;;;9.13;;
20314;SDS011;10315;50.958;13.080;2023-11-21T22:31:50;22.07;;;8.70;;
20314;SDS011;10315;50.958;13.080;2023-11-21T22:41:51;19.77;;;9.47;;
20314;SDS011;10315;50.958;13.080;2023-11-21T22:51:56;19.60;;;9.60;;
20314;SDS011;10315;50.958;13.080;2023-11-21T23:01:58;23.00;;;10.83;;
20314;SDS011;10315;50.958;13.080;2023-11-21T23:12:01;28.47;;;12.77;;
20314;SDS011;10315;50.958;13.080;2023-11-21T23:22:03;29.70;;;12.47;;
20314;SDS011;10315;50.958;13.080;2023-11-21T23:32:06;28.10;;;11.17;;
20314;SDS011;10315;50.958;13.080;2023-11-21T23:42:08;30.67;;;13.07;;
20314;SDS011;10315;50.958;13.080;2023-11-21T23:52:11;30.40;;;13.80;;
